createdAt,value
2018-08-13T00:04:25.683Z,22.44
2018-08-13T00:09:33.546Z,22.40
2018-08-13T00:14:35.694Z,22.40
2018-08-13T00:19:37.878Z,22.42
2018-08-13T00:24:40.075Z,22.45
2018-08-13T00:29:48.288Z,22.41
2018-08-13T00:34:50.457Z,22.44
2018-08-13T00:39:52.802Z,22.39
2018-08-13T00:44:54.985Z,22.36
2018-08-13T00:49:57.130Z,22.37
2018-08-13T00:54:59.316Z,22.35
2018-08-13T01:00:01.567Z,22.33
2018-08-13T01:05:04.772Z,22.26
2018-08-13T01:10:09.727Z,22.17
2018-08-13T01:15:13.527Z,22.15
2018-08-13T01:20:17.889Z,22.15
2018-08-13T01:25:20.609Z,22.08
2018-08-13T01:30:22.754Z,22.05
2018-08-13T01:35:24.943Z,21.99
2018-08-13T01:40:27.123Z,21.99
2018-08-13T01:45:29.256Z,21.94
2018-08-13T01:50:31.421Z,21.91
2018-08-13T01:55:33.575Z,21.84
2018-08-13T02:00:35.792Z,21.84
2018-08-13T02:05:38.011Z,21.84
2018-08-13T02:10:40.226Z,21.83
2018-08-13T02:15:42.390Z,21.84
2018-08-13T02:20:44.584Z,21.81
2018-08-13T02:25:46.947Z,21.84
2018-08-13T02:30:49.078Z,21.82
2018-08-13T02:35:51.244Z,21.87
2018-08-13T02:40:53.403Z,21.83
2018-08-13T02:45:55.633Z,21.78
2018-08-13T02:50:57.789Z,21.84
2018-08-13T02:56:00.124Z,21.81
2018-08-13T03:01:02.341Z,21.75
2018-08-13T03:06:04.576Z,21.80
2018-08-13T03:11:06.751Z,21.81
2018-08-13T03:16:08.912Z,21.79
2018-08-13T03:21:11.093Z,21.75
2018-08-13T03:26:13.238Z,21.71
2018-08-13T03:31:15.473Z,21.77
2018-08-13T03:36:17.664Z,21.72
2018-08-13T03:41:19.848Z,21.73
2018-08-13T03:46:22.007Z,21.66
2018-08-13T03:51:24.133Z,21.66
2018-08-13T03:56:26.318Z,21.59
2018-08-13T04:01:28.557Z,21.52
2018-08-13T04:06:30.742Z,21.59
2018-08-13T04:11:32.941Z,21.45
2018-08-13T04:16:35.417Z,21.59
2018-08-13T04:21:37.581Z,21.55
2018-08-13T04:26:39.719Z,21.54
2018-08-13T04:31:41.864Z,21.55
2018-08-13T04:36:44.045Z,21.57
2018-08-13T04:41:46.173Z,21.64
2018-08-13T04:46:48.350Z,21.60
2018-08-13T04:51:50.492Z,21.58
2018-08-13T04:56:53.641Z,21.56
2018-08-13T05:01:55.859Z,21.59
2018-08-13T05:06:58.030Z,21.56
2018-08-13T05:12:00.215Z,21.54
2018-08-13T05:17:02.359Z,21.58
2018-08-13T05:22:04.515Z,21.59
2018-08-13T05:27:06.692Z,21.56
2018-08-13T05:32:08.908Z,21.61
2018-08-13T05:37:11.068Z,21.58
2018-08-13T05:42:13.212Z,21.64
2018-08-13T05:47:15.430Z,21.66
2018-08-13T05:52:17.619Z,21.81
2018-08-13T05:57:19.796Z,21.86
2018-08-13T06:02:22.020Z,21.97
2018-08-13T06:07:24.179Z,21.96
2018-08-13T06:12:26.309Z,22.01
2018-08-13T06:17:28.457Z,22.02
2018-08-13T06:22:30.629Z,22.02
2018-08-13T06:27:32.796Z,22.02
2018-08-13T06:32:34.962Z,22.05
2018-08-13T06:37:37.174Z,22.10
2018-08-13T06:42:39.422Z,22.16
2018-08-13T06:47:41.935Z,22.22
2018-08-13T06:52:44.369Z,22.28
2018-08-13T06:57:46.542Z,22.31
2018-08-13T07:02:48.735Z,22.38
2018-08-13T07:07:50.939Z,22.42
2018-08-13T07:12:53.092Z,22.48
2018-08-13T07:17:55.257Z,22.48
2018-08-13T07:22:57.433Z,22.43
2018-08-13T07:27:59.693Z,22.44
2018-08-13T07:33:01.825Z,22.49
2018-08-13T07:38:04.174Z,22.48
2018-08-13T07:43:06.370Z,22.50
2018-08-13T07:48:08.549Z,22.47
2018-08-13T07:53:10.696Z,22.52
2018-08-13T07:58:12.826Z,22.60
2018-08-13T08:03:15.018Z,22.63
2018-08-13T08:08:17.205Z,22.64
2018-08-13T08:13:19.402Z,22.68
2018-08-13T08:18:21.573Z,22.71
2018-08-13T08:23:23.795Z,22.76
2018-08-13T08:28:25.981Z,22.85
2018-08-13T08:33:28.306Z,22.88
2018-08-13T08:38:30.476Z,22.96
2018-08-13T08:43:32.687Z,23.05
2018-08-13T08:48:34.885Z,23.13
2018-08-13T08:53:37.140Z,23.19
2018-08-13T08:58:39.274Z,23.24
2018-08-13T09:03:41.526Z,23.26
2018-08-13T09:08:43.684Z,23.23
2018-08-13T09:13:45.840Z,23.27
2018-08-13T09:18:59.564Z,23.33
2018-08-13T09:24:13.831Z,23.42
2018-08-13T09:29:27.821Z,23.53
2018-08-13T09:34:39.310Z,23.60
2018-08-13T09:39:41.449Z,23.65
2018-08-13T09:44:43.672Z,23.82
2018-08-13T09:49:45.863Z,23.96
2018-08-13T09:54:48.019Z,24.18
2018-08-13T09:59:50.192Z,24.32
2018-08-13T10:04:52.375Z,24.41
2018-08-13T10:09:54.536Z,24.37
2018-08-13T10:14:56.712Z,24.30
2018-08-13T10:19:58.890Z,24.23
2018-08-13T10:30:03.258Z,23.93
2018-08-13T10:35:05.960Z,23.88
2018-08-13T10:40:10.386Z,23.80
2018-08-13T10:45:12.621Z,23.83
2018-08-13T10:50:14.970Z,23.74
2018-08-13T10:55:17.159Z,23.70
2018-08-13T11:00:19.397Z,23.71
2018-08-13T11:05:21.714Z,23.82
2018-08-13T11:10:24.006Z,23.83
2018-08-13T11:15:26.143Z,23.78
2018-08-13T11:20:28.350Z,23.73
2018-08-13T11:25:30.538Z,23.80
2018-08-13T11:30:32.714Z,23.84
2018-08-13T11:35:34.919Z,23.91
2018-08-13T11:40:37.210Z,24.00
2018-08-13T11:45:39.407Z,24.04
2018-08-13T11:50:41.667Z,24.07
2018-08-13T11:55:43.860Z,24.11
2018-08-13T12:00:46.040Z,24.21
2018-08-13T12:05:48.264Z,24.31
2018-08-13T12:10:51.124Z,24.29
2018-08-13T12:15:53.316Z,24.25
2018-08-13T12:20:55.466Z,24.24
2018-08-13T12:25:57.679Z,24.19
2018-08-13T12:30:59.953Z,24.13
2018-08-13T12:36:02.142Z,24.06
2018-08-13T12:41:04.645Z,24.06
2018-08-13T12:46:07.670Z,24.04
2018-08-13T12:51:09.915Z,24.00
2018-08-13T12:56:12.122Z,23.90
2018-08-13T13:01:14.293Z,23.89
2018-08-13T13:06:16.558Z,23.99
2018-08-13T13:11:18.764Z,24.19
2018-08-13T13:16:20.961Z,24.47
2018-08-13T13:21:23.243Z,24.73
2018-08-13T13:26:25.449Z,24.84
2018-08-13T13:31:27.630Z,24.86
2018-08-13T13:36:29.841Z,24.80
2018-08-13T13:41:32.014Z,24.69
2018-08-13T13:46:34.237Z,24.65
2018-08-13T13:51:36.541Z,24.52
2018-08-13T13:56:38.825Z,24.42
2018-08-13T14:01:41.034Z,24.22
2018-08-13T14:06:43.329Z,24.12
2018-08-13T14:11:45.557Z,24.03
2018-08-13T14:16:47.714Z,23.82
2018-08-13T14:21:49.900Z,23.88
2018-08-13T14:26:52.110Z,23.86
2018-08-13T14:31:54.313Z,23.87
2018-08-13T14:36:56.496Z,23.89
2018-08-13T14:41:58.683Z,23.86
2018-08-13T14:47:00.873Z,23.72
2018-08-13T14:52:03.146Z,23.79
2018-08-13T14:57:05.451Z,23.77
2018-08-13T15:02:07.721Z,23.77
2018-08-13T15:07:09.990Z,23.75
2018-08-13T15:12:12.206Z,23.81
2018-08-13T15:17:14.514Z,23.80
2018-08-13T15:22:16.758Z,23.71
2018-08-13T15:27:19.050Z,23.69
2018-08-13T15:32:21.243Z,23.60
2018-08-13T15:37:23.494Z,23.59
2018-08-13T15:42:25.724Z,23.60
2018-08-13T15:47:27.932Z,23.59
2018-08-13T15:57:45.731Z,23.59
2018-08-13T16:02:48.251Z,23.59
2018-08-13T16:07:50.939Z,23.60
2018-08-13T16:12:54.215Z,23.57
2018-08-13T16:17:56.453Z,23.58
2018-08-13T16:22:58.679Z,23.57
2018-08-13T16:28:00.865Z,23.61
2018-08-13T16:33:03.110Z,23.63
2018-08-13T16:38:05.366Z,23.62
2018-08-13T16:43:07.554Z,23.60
2018-08-13T16:48:09.751Z,23.58
2018-08-13T16:53:12.014Z,23.56
2018-08-13T16:58:14.243Z,23.56
2018-08-13T17:03:16.464Z,23.53
2018-08-13T17:08:18.694Z,23.52
2018-08-13T17:13:20.977Z,23.53
2018-08-13T17:18:23.242Z,23.54
2018-08-13T17:23:25.455Z,23.53
2018-08-13T17:28:27.666Z,23.52
2018-08-13T17:33:30.203Z,23.49
2018-08-13T17:38:32.518Z,23.50
2018-08-13T17:43:34.765Z,23.49
2018-08-13T17:48:37.016Z,23.48
2018-08-13T17:53:39.249Z,23.48
2018-08-13T17:58:41.436Z,23.45
2018-08-13T18:03:43.664Z,23.43
2018-08-13T18:08:45.925Z,23.42
2018-08-13T18:13:48.227Z,23.40
2018-08-13T18:18:50.486Z,23.37
2018-08-13T18:23:52.770Z,23.32
2018-08-13T18:28:54.951Z,23.31
2018-08-13T18:33:57.216Z,23.28
2018-08-13T18:38:59.579Z,23.24
2018-08-13T18:44:01.806Z,23.22
2018-08-13T18:49:04.060Z,23.21
2018-08-13T18:54:06.297Z,23.19
2018-08-13T18:59:08.592Z,23.18
2018-08-13T19:04:11.187Z,23.17
2018-08-13T19:09:13.454Z,23.16
2018-08-13T19:14:15.740Z,23.15
2018-08-13T19:19:18.023Z,23.13
2018-08-13T19:24:20.296Z,22.90
2018-08-13T19:29:22.575Z,22.75
2018-08-13T19:34:24.783Z,22.72
2018-08-13T19:39:27.022Z,22.63
2018-08-13T19:44:29.314Z,22.67
2018-08-13T19:49:31.571Z,22.75
2018-08-13T19:54:33.801Z,22.66
2018-08-13T19:59:36.037Z,22.81
2018-08-13T20:04:38.368Z,22.81
2018-08-13T20:09:40.615Z,22.81
2018-08-13T20:14:42.835Z,22.78
2018-08-13T20:19:45.164Z,22.77
2018-08-13T20:24:47.309Z,22.76
2018-08-13T20:29:49.556Z,22.79
2018-08-13T20:34:51.763Z,22.78
2018-08-13T20:39:53.984Z,22.79
2018-08-13T20:44:56.238Z,22.77
2018-08-13T20:49:58.526Z,22.77
2018-08-13T20:55:00.795Z,22.73
2018-08-13T21:00:04.024Z,22.59
2018-08-13T21:05:07.304Z,22.49
2018-08-13T21:10:12.058Z,22.37
2018-08-13T21:15:15.027Z,22.29
2018-08-13T21:20:28.242Z,22.24
2018-08-13T21:25:30.584Z,22.33
2018-08-13T21:30:32.802Z,22.28
2018-08-13T21:35:35.002Z,22.11
2018-08-13T21:40:37.213Z,22.10
2018-08-13T21:45:39.458Z,22.07
2018-08-13T21:50:41.711Z,22.11
2018-08-13T21:55:43.894Z,22.06
2018-08-13T22:00:51.627Z,22.08
2018-08-13T22:05:53.951Z,21.96
2018-08-13T22:10:56.215Z,21.89
2018-08-13T22:15:58.459Z,21.89
2018-08-13T22:21:00.615Z,21.90
2018-08-13T22:26:02.940Z,22.03
2018-08-13T22:31:05.116Z,21.96
2018-08-13T22:36:07.329Z,21.93
2018-08-13T22:41:09.507Z,21.93
2018-08-13T22:46:11.713Z,22.00
2018-08-13T22:51:13.943Z,22.05
2018-08-13T22:56:16.147Z,21.98
2018-08-13T23:01:18.336Z,22.02
2018-08-13T23:06:20.571Z,22.00
2018-08-13T23:11:22.769Z,22.11
2018-08-13T23:16:24.950Z,22.11
2018-08-13T23:21:27.120Z,22.08
2018-08-13T23:26:29.303Z,22.06
2018-08-13T23:31:31.503Z,21.97
2018-08-13T23:36:33.707Z,22.03
2018-08-13T23:41:35.893Z,22.05
2018-08-13T23:46:38.143Z,22.00
2018-08-13T23:51:40.453Z,21.97
2018-08-13T23:56:42.678Z,21.88
